Spaceon02064 — ASD — position and weather

sailwx.info

Track history (hours):
 
Tides and Currents Weather Stations Pressure Air Temp Water Temp Dewpoint Dewpoint Depression Visibility Wind Speed Wind Dir Waves Ship Positions

Spaceon02064

Last reported at 2017-Nov-16 09:59 UTC. Time now 2017-Nov-18 10:18 UTC.
Position N 37°42' E 121°09'.

Length 6 m.

Type: Ship. MMSI: 200902064.

Date/timePositionNaut miles runAvg speedWind from/ knotsBaromVisibWave heightAir tempDewpointWater temp
2017-Nov-16 09:59N 37°42' E 121°09'35617.4
2017-Nov-15 13:31N 31°45' E 121°06'1 8.4
2017-Nov-15 13:25N 31°45' E 121°06'4 8.3
2017-Nov-15 13:00N 31°42' E 121°09'4 7.9
2017-Nov-15 12:30N 31°40' E 121°13'3 6.9
2017-Nov-15 12:00N 31°37' E 121°16'3 6.7
2017-Nov-15 11:30N 31°35' E 121°19'4 7.1
2017-Nov-15 11:00N 31°32' E 121°20'1 1.1
2017-Nov-15 10:30N 31°31' E 121°20'0 0.0
2017-Nov-15 10:00N 31°31' E 121°20'0 0.0
2017-Nov-15 09:30N 31°31' E 121°20'0 0.0
2017-Nov-15 09:00N 31°31' E 121°20'0 0.0
2017-Nov-15 08:30N 31°31' E 121°20'853164.2
2017-Nov-15 03:19N 21°12' E 110°26'85365.8
2017-Nov-14 14:21N 31°31' E 121°20'2 7.2
2017-Nov-14 14:00N 31°30' E 121°23'4 8.5
2017-Nov-14 13:30N 31°28' E 121°27'4 8.6
2017-Nov-14 13:00N 31°25' E 121°31'4 8.8
2017-Nov-14 12:30N 31°23' E 121°35'4 8.8
2017-Nov-14 12:00N 31°21' E 121°40'4 8.5
2017-Nov-14 11:30N 31°18' E 121°43'4 8.4
2017-Nov-14 11:00N 31°15' E 121°47'4 8.4
2017-Nov-14 10:30N 31°12' E 121°50'4 7.6
2017-Nov-14 10:00N 31°09' E 121°53'24 5.3
2017-Nov-14 05:25N 30°48' E 122°06'9 7.8
2017-Nov-14 04:13N 30°43' E 121°57'4638.1
2017-Nov-14 03:01N 31°23' E 121°32'1 7.9
2017-Nov-14 02:53N 31°23' E 121°34'3 7.5
2017-Nov-14 02:30N 31°23' E 121°37'3 6.3
2017-Nov-14 01:59N 31°23' E 121°41'0 0.7
2017-Nov-14 01:31N 31°23' E 121°41'0 0.0
2017-Nov-14 00:58N 31°23' E 121°41'0 0.0
2017-Nov-14 00:30N 31°23' E 121°41'0 0.0
2017-Nov-14 00:00N 31°23' E 121°41'0 0.0
2017-Nov-13 23:27N 31°23' E 121°41'0 0.2
2017-Nov-13 22:59N 31°23' E 121°41'1 1.8
2017-Nov-13 22:30N 31°22' E 121°40'0 0.0
2017-Nov-13 22:00N 31°22' E 121°40'38311.3
2017-Nov-12 12:07N 37°44' E 121°14'5 2.9
2017-Nov-12 10:22N 37°42' E 121°09'0 0.0
2017-Nov-12 09:48N 37°42' E 121°09'5 0.3
2017-Nov-11 16:23N 37°46' E 121°10'37336.9
2017-Nov-11 06:18N 31°33' E 121°20'2 4.7
2017-Nov-11 05:49N 31°32' E 121°22'2 4.6
2017-Nov-11 05:24N 31°31' E 121°24'2 4.6
2017-Nov-11 05:00N 31°30' E 121°26'2 4.4
2017-Nov-11 04:30N 31°28' E 121°28'2 3.6
2017-Nov-11 04:00N 31°27' E 121°29'1 2.0
2017-Nov-11 03:28N 31°26' E 121°29'0 0.0
2017-Nov-11 02:58N 31°26' E 121°29'0 0.0
2017-Nov-11 02:29N 31°26' E 121°29'0 0.0
2017-Nov-11 01:55N 31°26' E 121°29'0 0.0
2017-Nov-11 01:29N 31°26' E 121°29'0 0.0
2017-Nov-11 00:59N 31°26' E 121°29'0 0.0
2017-Nov-11 00:28N 31°26' E 121°29'0 0.0
2017-Nov-10 23:58N 31°26' E 121°29'0 0.0
2017-Nov-10 23:28N 31°26' E 121°29'0 0.0
2017-Nov-10 22:58N 31°26' E 121°29'0 0.0
2017-Nov-10 22:30N 31°26' E 121°29'0 0.0
2017-Nov-10 22:00N 31°26' E 121°29'0 0.0
2017-Nov-10 21:27N 31°26' E 121°29'0 0.0
2017-Nov-10 20:58N 31°26' E 121°29'0 0.0
2017-Nov-10 20:30N 31°26' E 121°29'0 0.0
2017-Nov-10 20:00N 31°26' E 121°29'0 0.0
2017-Nov-10 19:27N 31°26' E 121°29'0 0.0
2017-Nov-10 18:57N 31°26' E 121°29'0 0.0
2017-Nov-10 18:27N 31°26' E 121°29'0 0.0
2017-Nov-10 17:51N 31°26' E 121°29'0 0.0
2017-Nov-10 17:21N 31°26' E 121°29'0 0.0
2017-Nov-10 16:59N 31°26' E 121°29'0 0.0
2017-Nov-10 16:23N 31°26' E 121°29'0 0.0
2017-Nov-10 15:59N 31°26' E 121°29'0 0.0
2017-Nov-10 15:29N 31°26' E 121°29'0 0.0
2017-Nov-10 14:59N 31°26' E 121°29'0 0.0
2017-Nov-10 14:26N 31°26' E 121°29'0 0.0
2017-Nov-10 13:58N 31°26' E 121°29'0 0.0
2017-Nov-10 13:28N 31°26' E 121°29'0 0.0
2017-Nov-10 12:46N 31°26' E 121°29'0 0.0
2017-Nov-10 12:22N 31°26' E 121°29'0 0.0
2017-Nov-10 12:01N 31°26' E 121°29'0 0.0
2017-Nov-10 11:30N 31°26' E 121°29'0 0.0
2017-Nov-10 11:00N 31°26' E 121°29'0 0.0
2017-Nov-10 10:30N 31°26' E 121°29'0 0.0
2017-Nov-10 09:57N 31°26' E 121°29'0 0.0
2017-Nov-10 09:30N 31°26' E 121°29'0 0.0
2017-Nov-10 09:01N 31°26' E 121°29'0 0.0
2017-Nov-10 08:30N 31°26' E 121°29'0 0.0
2017-Nov-10 07:54N 31°26' E 121°29'1 3.5
2017-Nov-10 07:30N 31°25' E 121°30'4 2.3
2017-Nov-10 05:44N 31°28' E 121°28'1 5.1
2017-Nov-10 05:30N 31°28' E 121°28'2 4.5
2017-Nov-10 05:00N 31°26' E 121°30'525.5
2017-Nov-10 04:49N 31°22' E 121°28'517.1
2017-Nov-10 04:30N 31°25' E 121°33'5 4.1
2017-Nov-10 03:14N 31°23' E 121°38'1 3.5
2017-Nov-10 02:59N 31°23' E 121°39'1 3.0
2017-Nov-10 02:31N 31°23' E 121°41'0 0.0
2017-Nov-10 02:00N 31°23' E 121°41'0 0.0
2017-Nov-10 01:31N 31°23' E 121°41'1156.0
2017-Nov-10 01:18N 31°22' E 121°28'1138.3
2017-Nov-10 01:00N 31°23' E 121°41'0 0.0
2017-Nov-10 00:31N 31°23' E 121°41'0 0.0
2017-Nov-10 00:00N 31°23' E 121°41'0 0.0
2017-Nov-09 23:31N 31°23' E 121°41'0 0.0
2017-Nov-09 23:00N 31°23' E 121°41'0 0.0
2017-Nov-09 22:31N 31°23' E 121°41'0 0.0
2017-Nov-09 22:00N 31°23' E 121°41'0 0.0
2017-Nov-09 21:30N 31°23' E 121°41'0 0.0
2017-Nov-09 21:01N 31°23' E 121°41'0 0.0
2017-Nov-09 20:30N 31°23' E 121°41'11220.1
2017-Nov-09 20:27N 31°22' E 121°28'1125.3
2017-Nov-09 20:00N 31°23' E 121°41'0 0.0
2017-Nov-09 19:30N 31°23' E 121°41'0 0.0
2017-Nov-09 19:00N 31°23' E 121°41'0 0.0
2017-Nov-09 18:30N 31°23' E 121°41'0 0.0
2017-Nov-09 18:00N 31°23' E 121°41'0 0.0
2017-Nov-09 17:30N 31°23' E 121°41'0 0.0
2017-Nov-09 17:01N 31°23' E 121°41'0 0.0
2017-Nov-09 16:30N 31°23' E 121°41'0 0.0
2017-Nov-09 16:00N 31°23' E 121°41'0 0.0
2017-Nov-09 15:28N 31°23' E 121°41'0 0.0
2017-Nov-09 15:00N 31°23' E 121°41'0 0.0
2017-Nov-09 14:30N 31°23' E 121°41'0 0.0
2017-Nov-09 14:00N 31°23' E 121°41'0 0.0
2017-Nov-09 13:30N 31°23' E 121°41'0 0.0
2017-Nov-09 13:00N 31°23' E 121°41'0 0.0
2017-Nov-09 12:31N 31°23' E 121°41'0 0.0
2017-Nov-09 12:00N 31°23' E 121°41'0 0.0
2017-Nov-09 11:30N 31°23' E 121°41'0 0.0
2017-Nov-09 11:00N 31°23' E 121°41'0 0.0
2017-Nov-09 10:30N 31°23' E 121°41'0 0.0
2017-Nov-09 10:01N 31°23' E 121°41'0 0.0
2017-Nov-09 09:30N 31°23' E 121°41'0 0.0
2017-Nov-09 09:00N 31°23' E 121°41'1179.9
2017-Nov-09 08:51N 31°22' E 121°28'1133.0
2017-Nov-09 08:31N 31°23' E 121°41'0 0.0
2017-Nov-09 06:56N 31°23' E 121°41'0 0.0
2017-Nov-09 06:21N 31°23' E 121°41'0 0.0
2017-Nov-09 06:01N 31°23' E 121°41'0 0.0
2017-Nov-09 05:31N 31°23' E 121°41'0 0.0
2017-Nov-09 05:00N 31°23' E 121°41'0 0.0
2017-Nov-09 04:30N 31°23' E 121°41'0 0.0
2017-Nov-09 04:00N 31°23' E 121°41'0 0.0
2017-Nov-09 03:31N 31°23' E 121°41'0 0.0
2017-Nov-09 03:00N 31°23' E 121°41'8604032.8
2017-Nov-09 02:48N 21°12' E 110°26'8603027.5
2017-Nov-09 02:31N 31°23' E 121°41'0 0.0
2017-Nov-09 02:01N 31°23' E 121°41'0 0.0
2017-Nov-09 01:30N 31°23' E 121°41'0 0.0
2017-Nov-09 01:00N 31°23' E 121°41'0 0.0
2017-Nov-09 00:30N 31°23' E 121°41'0 0.0
2017-Nov-09 00:00N 31°23' E 121°41'0 0.0
2017-Nov-08 23:30N 31°23' E 121°41'0 0.0
2017-Nov-08 23:00N 31°23' E 121°41'0 0.0
2017-Nov-08 22:30N 31°23' E 121°41'0 0.4
2017-Nov-08 22:00N 31°23' E 121°41'1 1.3
2017-Nov-08 21:30N 31°22' E 121°40'0 0.0
2017-Nov-08 21:00N 31°22' E 121°40'0 0.0
2017-Nov-08 20:30N 31°22' E 121°40'0 0.0
2017-Nov-08 20:00N 31°22' E 121°40'0 0.0
2017-Nov-08 19:31N 31°22' E 121°40'0 0.0
2017-Nov-08 19:01N 31°22' E 121°40'0 0.0
2017-Nov-08 18:30N 31°22' E 121°40'0 0.0
2017-Nov-08 17:31N 31°22' E 121°40'0 0.0
2017-Nov-08 17:00N 31°22' E 121°40'0 0.0
2017-Nov-08 16:31N 31°22' E 121°40'0 0.1
2017-Nov-08 16:00N 31°22' E 121°40'0 0.0
2017-Nov-08 15:31N 31°22' E 121°40'0 0.0
2017-Nov-08 15:00N 31°22' E 121°40'0 0.0
2017-Nov-08 14:30N 31°22' E 121°40'1 1.6
2017-Nov-08 14:01N 31°23' E 121°41'0 0.0
2017-Nov-08 13:31N 31°23' E 121°41'0 0.0
2017-Nov-08 13:01N 31°23' E 121°41'1 1.8
2017-Nov-08 12:30N 31°23' E 121°40'4 8.2
2017-Nov-08 12:00N 31°23' E 121°35'4 7.7
2017-Nov-08 11:30N 31°23' E 121°31'0 0.0
2017-Nov-08 06:15N 31°24' E 121°31'6584093.1
2017-Nov-08 06:05N 23°05' E 113°28'6591989.6
2017-Nov-08 05:45N 31°24' E 121°31'0 0.0
2017-Nov-08 05:30N 31°24' E 121°31'0 0.0
2017-Nov-08 04:57N 31°24' E 121°31'0 0.1
2017-Nov-08 04:30N 31°24' E 121°31'0 0.1
2017-Nov-08 04:00N 31°24' E 121°31'0 0.1
2017-Nov-08 03:22N 31°24' E 121°31'2 4.6
2017-Nov-08 03:00N 31°25' E 121°30'3 5.6
2017-Nov-08 02:30N 31°27' E 121°27'52111.4
2017-Nov-08 02:03N 30°43' E 121°57'1 8.6
2017-Nov-08 01:56N 30°43' E 121°58'6 8.6
2017-Nov-08 01:13N 30°46' E 122°05'2 8.3
2017-Nov-08 00:57N 30°47' E 122°07'4 8.3
2017-Nov-08 00:30N 30°50' E 122°09'5 8.5
2017-Nov-07 23:57N 30°55' E 122°10'4 8.2
2017-Nov-07 23:29N 30°59' E 122°09'4 8.1
2017-Nov-07 23:00N 31°01' E 122°06'5 8.8
2017-Nov-07 22:29N 31°04' E 122°02'510.1
2017-Nov-07 22:00N 31°06' E 121°57'6 9.9
2017-Nov-07 21:22N 31°10' E 121°51'3 9.0
2017-Nov-07 21:00N 31°13' E 121°48'4 8.2
2017-Nov-07 20:28N 31°16' E 121°45'4 7.9
2017-Nov-07 20:00N 31°19' E 121°42'3 6.5
2017-Nov-07 19:30N 31°21' E 121°39'3 5.9
2017-Nov-07 19:00N 31°22' E 121°36'3 5.3
2017-Nov-07 18:30N 31°24' E 121°33'2 5.0
2017-Nov-07 18:00N 31°25' E 121°31'2 4.8
2017-Nov-07 17:30N 31°26' E 121°29'2 4.8
2017-Nov-07 17:01N 31°28' E 121°27'3 5.9
2017-Nov-07 16:29N 31°30' E 121°24'4 7.3
2017-Nov-07 16:00N 31°32' E 121°20'4 8.8
2017-Nov-07 15:30N 31°35' E 121°17'5 9.6
2017-Nov-07 15:00N 31°39' E 121°13'510.5
2017-Nov-07 14:30N 31°42' E 121°08'5 9.9
2017-Nov-07 14:00N 31°45' E 121°04'13 8.5
2017-Nov-07 12:29N 31°54' E 120°53'5 9.0
2017-Nov-07 11:59N 31°58' E 120°51'  
Track history (hours):
 
Tides and Currents Weather Stations Pressure Air Temp Water Temp Dewpoint Dewpoint Depression Visibility Wind Speed Wind Dir Waves Ship Positions

Spaceon02064

Last reported at 2017-Nov-16 09:59 UTC. Time now 2017-Nov-18 10:18 UTC.
Position N 37°42' E 121°09'.

Length 6 m.

Type: Ship. MMSI: 200902064.

Date/timePositionNaut miles runAvg speedWind from/ knotsBaromVisibWave heightAir tempDewpointWater temp
2017-Nov-16 09:59N 37°42' E 121°09'35617.4
2017-Nov-15 13:31N 31°45' E 121°06'1 8.4
2017-Nov-15 13:25N 31°45' E 121°06'4 8.3
2017-Nov-15 13:00N 31°42' E 121°09'4 7.9
2017-Nov-15 12:30N 31°40' E 121°13'3 6.9
2017-Nov-15 12:00N 31°37' E 121°16'3 6.7
2017-Nov-15 11:30N 31°35' E 121°19'4 7.1
2017-Nov-15 11:00N 31°32' E 121°20'1 1.1
2017-Nov-15 10:30N 31°31' E 121°20'0 0.0
2017-Nov-15 10:00N 31°31' E 121°20'0 0.0
2017-Nov-15 09:30N 31°31' E 121°20'0 0.0
2017-Nov-15 09:00N 31°31' E 121°20'0 0.0
2017-Nov-15 08:30N 31°31' E 121°20'853164.2
2017-Nov-15 03:19N 21°12' E 110°26'85365.8
2017-Nov-14 14:21N 31°31' E 121°20'2 7.2
2017-Nov-14 14:00N 31°30' E 121°23'4 8.5
2017-Nov-14 13:30N 31°28' E 121°27'4 8.6
2017-Nov-14 13:00N 31°25' E 121°31'4 8.8
2017-Nov-14 12:30N 31°23' E 121°35'4 8.8
2017-Nov-14 12:00N 31°21' E 121°40'4 8.5
2017-Nov-14 11:30N 31°18' E 121°43'4 8.4
2017-Nov-14 11:00N 31°15' E 121°47'4 8.4
2017-Nov-14 10:30N 31°12' E 121°50'4 7.6
2017-Nov-14 10:00N 31°09' E 121°53'24 5.3
2017-Nov-14 05:25N 30°48' E 122°06'9 7.8
2017-Nov-14 04:13N 30°43' E 121°57'4638.1
2017-Nov-14 03:01N 31°23' E 121°32'1 7.9
2017-Nov-14 02:53N 31°23' E 121°34'3 7.5
2017-Nov-14 02:30N 31°23' E 121°37'3 6.3
2017-Nov-14 01:59N 31°23' E 121°41'0 0.7
2017-Nov-14 01:31N 31°23' E 121°41'0 0.0
2017-Nov-14 00:58N 31°23' E 121°41'0 0.0
2017-Nov-14 00:30N 31°23' E 121°41'0 0.0
2017-Nov-14 00:00N 31°23' E 121°41'0 0.0
2017-Nov-13 23:27N 31°23' E 121°41'0 0.2
2017-Nov-13 22:59N 31°23' E 121°41'1 1.8
2017-Nov-13 22:30N 31°22' E 121°40'0 0.0
2017-Nov-13 22:00N 31°22' E 121°40'38311.3
2017-Nov-12 12:07N 37°44' E 121°14'5 2.9
2017-Nov-12 10:22N 37°42' E 121°09'0 0.0
2017-Nov-12 09:48N 37°42' E 121°09'5 0.3
2017-Nov-11 16:23N 37°46' E 121°10'37336.9
2017-Nov-11 06:18N 31°33' E 121°20'2 4.7
2017-Nov-11 05:49N 31°32' E 121°22'2 4.6
2017-Nov-11 05:24N 31°31' E 121°24'2 4.6
2017-Nov-11 05:00N 31°30' E 121°26'2 4.4
2017-Nov-11 04:30N 31°28' E 121°28'2 3.6
2017-Nov-11 04:00N 31°27' E 121°29'1 2.0
2017-Nov-11 03:28N 31°26' E 121°29'0 0.0
2017-Nov-11 02:58N 31°26' E 121°29'0 0.0
2017-Nov-11 02:29N 31°26' E 121°29'0 0.0
2017-Nov-11 01:55N 31°26' E 121°29'0 0.0
2017-Nov-11 01:29N 31°26' E 121°29'0 0.0
2017-Nov-11 00:59N 31°26' E 121°29'0 0.0
2017-Nov-11 00:28N 31°26' E 121°29'0 0.0
2017-Nov-10 23:58N 31°26' E 121°29'0 0.0
2017-Nov-10 23:28N 31°26' E 121°29'0 0.0
2017-Nov-10 22:58N 31°26' E 121°29'0 0.0
2017-Nov-10 22:30N 31°26' E 121°29'0 0.0
2017-Nov-10 22:00N 31°26' E 121°29'0 0.0
2017-Nov-10 21:27N 31°26' E 121°29'0 0.0
2017-Nov-10 20:58N 31°26' E 121°29'0 0.0
2017-Nov-10 20:30N 31°26' E 121°29'0 0.0
2017-Nov-10 20:00N 31°26' E 121°29'0 0.0
2017-Nov-10 19:27N 31°26' E 121°29'0 0.0
2017-Nov-10 18:57N 31°26' E 121°29'0 0.0
2017-Nov-10 18:27N 31°26' E 121°29'0 0.0
2017-Nov-10 17:51N 31°26' E 121°29'0 0.0
2017-Nov-10 17:21N 31°26' E 121°29'0 0.0
2017-Nov-10 16:59N 31°26' E 121°29'0 0.0
2017-Nov-10 16:23N 31°26' E 121°29'0 0.0
2017-Nov-10 15:59N 31°26' E 121°29'0 0.0
2017-Nov-10 15:29N 31°26' E 121°29'0 0.0
2017-Nov-10 14:59N 31°26' E 121°29'0 0.0
2017-Nov-10 14:26N 31°26' E 121°29'0 0.0
2017-Nov-10 13:58N 31°26' E 121°29'0 0.0
2017-Nov-10 13:28N 31°26' E 121°29'0 0.0
2017-Nov-10 12:46N 31°26' E 121°29'0 0.0
2017-Nov-10 12:22N 31°26' E 121°29'0 0.0
2017-Nov-10 12:01N 31°26' E 121°29'0 0.0
2017-Nov-10 11:30N 31°26' E 121°29'0 0.0
2017-Nov-10 11:00N 31°26' E 121°29'0 0.0
2017-Nov-10 10:30N 31°26' E 121°29'0 0.0
2017-Nov-10 09:57N 31°26' E 121°29'0 0.0
2017-Nov-10 09:30N 31°26' E 121°29'0 0.0
2017-Nov-10 09:01N 31°26' E 121°29'0 0.0
2017-Nov-10 08:30N 31°26' E 121°29'0 0.0
2017-Nov-10 07:54N 31°26' E 121°29'1 3.5
2017-Nov-10 07:30N 31°25' E 121°30'4 2.3
2017-Nov-10 05:44N 31°28' E 121°28'1 5.1
2017-Nov-10 05:30N 31°28' E 121°28'2 4.5
2017-Nov-10 05:00N 31°26' E 121°30'525.5
2017-Nov-10 04:49N 31°22' E 121°28'517.1
2017-Nov-10 04:30N 31°25' E 121°33'5 4.1
2017-Nov-10 03:14N 31°23' E 121°38'1 3.5
2017-Nov-10 02:59N 31°23' E 121°39'1 3.0
2017-Nov-10 02:31N 31°23' E 121°41'0 0.0
2017-Nov-10 02:00N 31°23' E 121°41'0 0.0
2017-Nov-10 01:31N 31°23' E 121°41'1156.0
2017-Nov-10 01:18N 31°22' E 121°28'1138.3
2017-Nov-10 01:00N 31°23' E 121°41'0 0.0
2017-Nov-10 00:31N 31°23' E 121°41'0 0.0
2017-Nov-10 00:00N 31°23' E 121°41'0 0.0
2017-Nov-09 23:31N 31°23' E 121°41'0 0.0
2017-Nov-09 23:00N 31°23' E 121°41'0 0.0
2017-Nov-09 22:31N 31°23' E 121°41'0 0.0
2017-Nov-09 22:00N 31°23' E 121°41'0 0.0
2017-Nov-09 21:30N 31°23' E 121°41'0 0.0
2017-Nov-09 21:01N 31°23' E 121°41'0 0.0
2017-Nov-09 20:30N 31°23' E 121°41'11220.1
2017-Nov-09 20:27N 31°22' E 121°28'1125.3
2017-Nov-09 20:00N 31°23' E 121°41'0 0.0
2017-Nov-09 19:30N 31°23' E 121°41'0 0.0
2017-Nov-09 19:00N 31°23' E 121°41'0 0.0
2017-Nov-09 18:30N 31°23' E 121°41'0 0.0
2017-Nov-09 18:00N 31°23' E 121°41'0 0.0
2017-Nov-09 17:30N 31°23' E 121°41'0 0.0
2017-Nov-09 17:01N 31°23' E 121°41'0 0.0
2017-Nov-09 16:30N 31°23' E 121°41'0 0.0
2017-Nov-09 16:00N 31°23' E 121°41'0 0.0
2017-Nov-09 15:28N 31°23' E 121°41'0 0.0
2017-Nov-09 15:00N 31°23' E 121°41'0 0.0
2017-Nov-09 14:30N 31°23' E 121°41'0 0.0
2017-Nov-09 14:00N 31°23' E 121°41'0 0.0
2017-Nov-09 13:30N 31°23' E 121°41'0 0.0
2017-Nov-09 13:00N 31°23' E 121°41'0 0.0
2017-Nov-09 12:31N 31°23' E 121°41'0 0.0
2017-Nov-09 12:00N 31°23' E 121°41'0 0.0
2017-Nov-09 11:30N 31°23' E 121°41'0 0.0
2017-Nov-09 11:00N 31°23' E 121°41'0 0.0
2017-Nov-09 10:30N 31°23' E 121°41'0 0.0
2017-Nov-09 10:01N 31°23' E 121°41'0 0.0
2017-Nov-09 09:30N 31°23' E 121°41'0 0.0
2017-Nov-09 09:00N 31°23' E 121°41'1179.9
2017-Nov-09 08:51N 31°22' E 121°28'1133.0
2017-Nov-09 08:31N 31°23' E 121°41'0 0.0
2017-Nov-09 06:56N 31°23' E 121°41'0 0.0
2017-Nov-09 06:21N 31°23' E 121°41'0 0.0
2017-Nov-09 06:01N 31°23' E 121°41'0 0.0
2017-Nov-09 05:31N 31°23' E 121°41'0 0.0
2017-Nov-09 05:00N 31°23' E 121°41'0 0.0
2017-Nov-09 04:30N 31°23' E 121°41'0 0.0
2017-Nov-09 04:00N 31°23' E 121°41'0 0.0
2017-Nov-09 03:31N 31°23' E 121°41'0 0.0
2017-Nov-09 03:00N 31°23' E 121°41'8604032.8
2017-Nov-09 02:48N 21°12' E 110°26'8603027.5
2017-Nov-09 02:31N 31°23' E 121°41'0 0.0
2017-Nov-09 02:01N 31°23' E 121°41'0 0.0
2017-Nov-09 01:30N 31°23' E 121°41'0 0.0
2017-Nov-09 01:00N 31°23' E 121°41'0 0.0
2017-Nov-09 00:30N 31°23' E 121°41'0 0.0
2017-Nov-09 00:00N 31°23' E 121°41'0 0.0
2017-Nov-08 23:30N 31°23' E 121°41'0 0.0
2017-Nov-08 23:00N 31°23' E 121°41'0 0.0
2017-Nov-08 22:30N 31°23' E 121°41'0 0.4
2017-Nov-08 22:00N 31°23' E 121°41'1 1.3
2017-Nov-08 21:30N 31°22' E 121°40'0 0.0
2017-Nov-08 21:00N 31°22' E 121°40'0 0.0
2017-Nov-08 20:30N 31°22' E 121°40'0 0.0
2017-Nov-08 20:00N 31°22' E 121°40'0 0.0
2017-Nov-08 19:31N 31°22' E 121°40'0 0.0
2017-Nov-08 19:01N 31°22' E 121°40'0 0.0
2017-Nov-08 18:30N 31°22' E 121°40'0 0.0
2017-Nov-08 17:31N 31°22' E 121°40'0 0.0
2017-Nov-08 17:00N 31°22' E 121°40'0 0.0
2017-Nov-08 16:31N 31°22' E 121°40'0 0.1
2017-Nov-08 16:00N 31°22' E 121°40'0 0.0
2017-Nov-08 15:31N 31°22' E 121°40'0 0.0
2017-Nov-08 15:00N 31°22' E 121°40'0 0.0
2017-Nov-08 14:30N 31°22' E 121°40'1 1.6
2017-Nov-08 14:01N 31°23' E 121°41'0 0.0
2017-Nov-08 13:31N 31°23' E 121°41'0 0.0
2017-Nov-08 13:01N 31°23' E 121°41'1 1.8
2017-Nov-08 12:30N 31°23' E 121°40'4 8.2
2017-Nov-08 12:00N 31°23' E 121°35'4 7.7
2017-Nov-08 11:30N 31°23' E 121°31'0 0.0
2017-Nov-08 06:15N 31°24' E 121°31'6584093.1
2017-Nov-08 06:05N 23°05' E 113°28'6591989.6
2017-Nov-08 05:45N 31°24' E 121°31'0 0.0
2017-Nov-08 05:30N 31°24' E 121°31'0 0.0
2017-Nov-08 04:57N 31°24' E 121°31'0 0.1
2017-Nov-08 04:30N 31°24' E 121°31'0 0.1
2017-Nov-08 04:00N 31°24' E 121°31'0 0.1
2017-Nov-08 03:22N 31°24' E 121°31'2 4.6
2017-Nov-08 03:00N 31°25' E 121°30'3 5.6
2017-Nov-08 02:30N 31°27' E 121°27'52111.4
2017-Nov-08 02:03N 30°43' E 121°57'1 8.6
2017-Nov-08 01:56N 30°43' E 121°58'6 8.6
2017-Nov-08 01:13N 30°46' E 122°05'2 8.3
2017-Nov-08 00:57N 30°47' E 122°07'4 8.3
2017-Nov-08 00:30N 30°50' E 122°09'5 8.5
2017-Nov-07 23:57N 30°55' E 122°10'4 8.2
2017-Nov-07 23:29N 30°59' E 122°09'4 8.1
2017-Nov-07 23:00N 31°01' E 122°06'5 8.8
2017-Nov-07 22:29N 31°04' E 122°02'510.1
2017-Nov-07 22:00N 31°06' E 121°57'6 9.9
2017-Nov-07 21:22N 31°10' E 121°51'3 9.0
2017-Nov-07 21:00N 31°13' E 121°48'4 8.2
2017-Nov-07 20:28N 31°16' E 121°45'4 7.9
2017-Nov-07 20:00N 31°19' E 121°42'3 6.5
2017-Nov-07 19:30N 31°21' E 121°39'3 5.9
2017-Nov-07 19:00N 31°22' E 121°36'3 5.3
2017-Nov-07 18:30N 31°24' E 121°33'2 5.0
2017-Nov-07 18:00N 31°25' E 121°31'2 4.8
2017-Nov-07 17:30N 31°26' E 121°29'2 4.8
2017-Nov-07 17:01N 31°28' E 121°27'3 5.9
2017-Nov-07 16:29N 31°30' E 121°24'4 7.3
2017-Nov-07 16:00N 31°32' E 121°20'4 8.8
2017-Nov-07 15:30N 31°35' E 121°17'5 9.6
2017-Nov-07 15:00N 31°39' E 121°13'510.5
2017-Nov-07 14:30N 31°42' E 121°08'5 9.9
2017-Nov-07 14:00N 31°45' E 121°04'13 8.5
2017-Nov-07 12:29N 31°54' E 120°53'5 9.0
2017-Nov-07 11:59N 31°58' E 120°51'  

Dump ship's entire track history